createdAt,value
2023-06-22T00:01:21.180Z,22.06
2023-06-22T00:03:48.019Z,22.06
2023-06-22T00:06:14.753Z,22.05
2023-06-22T00:08:41.736Z,22.05
2023-06-22T00:11:08.422Z,22.06
2023-06-22T00:13:35.168Z,22.09
2023-06-22T00:16:01.878Z,22.08
2023-06-22T00:18:28.949Z,22.03
2023-06-22T00:20:59.455Z,22.00
2023-06-22T00:23:26.698Z,21.96
2023-06-22T00:25:53.817Z,21.97
2023-06-22T00:28:20.520Z,21.94
2023-06-22T00:30:47.263Z,21.94
2023-06-22T00:33:13.975Z,21.89
2023-06-22T00:35:42.700Z,21.87
2023-06-22T00:38:09.612Z,21.87
2023-06-22T00:40:36.756Z,21.85
2023-06-22T00:43:03.722Z,21.83
2023-06-22T00:45:30.493Z,21.79
2023-06-22T00:47:58.836Z,21.76
2023-06-22T00:50:28.780Z,21.76
2023-06-22T00:53:01.137Z,21.63
2023-06-22T00:55:28.801Z,21.57
2023-06-22T00:57:58.164Z,21.52
2023-06-22T01:00:26.204Z,21.45
2023-06-22T01:02:54.316Z,21.44
2023-06-22T01:05:23.240Z,21.45
2023-06-22T01:08:13.569Z,21.39
2023-06-22T01:10:45.904Z,21.32
2023-06-22T01:13:35.276Z,21.35
2023-06-22T01:16:06.495Z,21.37
2023-06-22T01:18:37.695Z,21.39
2023-06-22T01:21:10.593Z,21.35
2023-06-22T01:23:56.040Z,21.34
2023-06-22T01:26:52.350Z,21.32
2023-06-22T01:29:21.470Z,21.35
2023-06-22T01:31:50.681Z,21.28
2023-06-22T01:34:18.495Z,21.26
2023-06-22T01:36:46.805Z,21.23
2023-06-22T01:39:14.857Z,21.20
2023-06-22T01:41:43.542Z,21.15
2023-06-22T01:44:10.653Z,21.13
2023-06-22T01:46:38.421Z,21.13
2023-06-22T01:49:05.643Z,21.12
2023-06-22T01:51:32.474Z,21.09
2023-06-22T01:53:59.087Z,21.04
2023-06-22T01:56:27.707Z,21.02
2023-06-22T01:59:02.197Z,20.99
2023-06-22T02:01:40.905Z,20.96
2023-06-22T02:04:21.394Z,20.93
2023-06-22T02:06:52.473Z,20.92
2023-06-22T02:09:22.211Z,20.85
2023-06-22T02:11:54.774Z,20.83
2023-06-22T02:14:22.999Z,20.85
2023-06-22T02:16:50.586Z,20.84
2023-06-22T02:19:17.168Z,20.79
2023-06-22T02:21:43.812Z,20.73
2023-06-22T02:24:10.394Z,20.65
2023-06-22T02:26:39.512Z,20.65
2023-06-22T02:29:06.130Z,20.64
2023-06-22T02:31:33.957Z,20.66
2023-06-22T02:34:01.366Z,20.66
2023-06-22T02:36:28.319Z,20.69
2023-06-22T02:38:57.617Z,20.72
2023-06-22T02:41:24.281Z,20.76
2023-06-22T02:43:50.848Z,20.74
2023-06-22T02:46:19.035Z,20.72
2023-06-22T02:48:47.217Z,20.71
2023-06-22T02:51:14.065Z,20.64
2023-06-22T02:53:40.684Z,20.61
2023-06-22T02:56:07.268Z,20.61
2023-06-22T02:58:39.744Z,20.62
2023-06-22T03:01:07.320Z,20.61
2023-06-22T03:03:34.676Z,20.62
2023-06-22T03:06:02.109Z,20.61
2023-06-22T03:08:30.044Z,20.59
2023-06-22T03:10:57.142Z,20.57
2023-06-22T03:13:24.167Z,20.53
2023-06-22T03:15:50.898Z,20.55
2023-06-22T03:18:17.533Z,20.56
2023-06-22T03:20:44.135Z,20.55
2023-06-22T03:23:10.716Z,20.53
2023-06-22T03:25:37.330Z,20.55
2023-06-22T03:28:04.062Z,20.52
2023-06-22T03:30:30.868Z,20.49
2023-06-22T03:32:57.798Z,20.47
2023-06-22T03:35:24.580Z,20.45
2023-06-22T03:37:51.230Z,20.45
2023-06-22T03:40:17.852Z,20.44
2023-06-22T03:42:44.654Z,20.44
2023-06-22T03:45:12.055Z,20.46
2023-06-22T03:47:38.696Z,20.47
2023-06-22T03:50:06.917Z,20.48
2023-06-22T03:52:33.673Z,20.48
2023-06-22T03:55:00.397Z,20.49
2023-06-22T03:57:27.026Z,20.53
2023-06-22T03:59:57.800Z,20.56
2023-06-22T04:02:24.678Z,20.61
2023-06-22T04:04:51.580Z,20.63
2023-06-22T04:07:19.109Z,20.68
2023-06-22T04:09:45.698Z,20.72
2023-06-22T04:12:12.385Z,20.73
2023-06-22T04:14:39.002Z,20.75
2023-06-22T04:17:05.895Z,20.81
2023-06-22T04:19:32.500Z,20.83
2023-06-22T04:21:59.124Z,20.85
2023-06-22T04:24:25.736Z,20.85
2023-06-22T04:26:55.922Z,20.89
2023-06-22T04:29:31.167Z,20.95
2023-06-22T04:32:04.256Z,21.01
2023-06-22T04:34:30.944Z,21.00
2023-06-22T04:36:57.797Z,21.02
2023-06-22T04:39:25.183Z,21.04
2023-06-22T04:41:52.523Z,21.07
2023-06-22T04:44:26.207Z,21.11
2023-06-22T04:46:55.188Z,21.16
2023-06-22T04:49:23.011Z,21.17
2023-06-22T04:51:50.988Z,21.23
2023-06-22T04:54:17.600Z,21.27
2023-06-22T04:56:44.187Z,21.33
2023-06-22T04:59:14.092Z,21.39
2023-06-22T05:01:41.038Z,21.44
2023-06-22T05:04:08.103Z,21.50
2023-06-22T05:06:34.941Z,21.54
2023-06-22T05:09:01.637Z,21.57
2023-06-22T05:11:29.454Z,21.62
2023-06-22T05:13:57.059Z,21.68
2023-06-22T05:16:27.452Z,21.72
2023-06-22T05:18:55.764Z,21.75
2023-06-22T05:21:26.947Z,21.77
2023-06-22T05:23:54.685Z,21.81
2023-06-22T05:26:21.807Z,21.85
2023-06-22T05:28:49.202Z,21.90
2023-06-22T05:31:17.220Z,21.94
2023-06-22T05:33:45.299Z,22.00
2023-06-22T05:36:13.586Z,22.04
2023-06-22T05:38:43.526Z,22.09
2023-06-22T05:41:10.176Z,22.14
2023-06-22T05:43:36.867Z,22.18
2023-06-22T05:46:03.702Z,22.23
2023-06-22T05:48:30.356Z,22.27
2023-06-22T05:50:57.065Z,22.32
2023-06-22T05:53:23.702Z,22.35
2023-06-22T05:55:50.704Z,22.40
2023-06-22T05:58:17.436Z,22.45
2023-06-22T06:00:45.342Z,22.51
2023-06-22T06:03:13.496Z,22.56
2023-06-22T06:05:42.082Z,22.64
2023-06-22T06:08:08.726Z,22.71
2023-06-22T06:10:36.512Z,22.78
2023-06-22T06:13:05.313Z,22.86
2023-06-22T06:15:33.247Z,22.93
2023-06-22T06:18:00.030Z,23.03
2023-06-22T06:20:29.304Z,23.11
2023-06-22T06:22:57.106Z,23.17
2023-06-22T06:25:24.205Z,23.23
2023-06-22T06:27:52.456Z,23.28
2023-06-22T06:30:20.089Z,23.33
2023-06-22T06:32:47.693Z,23.41
2023-06-22T06:35:16.040Z,23.49
2023-06-22T06:37:47.005Z,23.57
2023-06-22T06:40:14.970Z,23.66
2023-06-22T06:42:45.606Z,23.75
2023-06-22T06:45:18.839Z,23.83
2023-06-22T06:47:45.712Z,23.89
2023-06-22T06:50:13.221Z,23.94
2023-06-22T06:52:40.050Z,23.98
2023-06-22T06:55:10.269Z,24.04
2023-06-22T06:57:38.769Z,24.09
2023-06-22T07:00:12.724Z,24.15
2023-06-22T07:02:41.398Z,24.21
2023-06-22T07:05:08.519Z,24.26
2023-06-22T07:07:38.217Z,24.34
2023-06-22T07:10:07.269Z,24.41
2023-06-22T07:12:34.202Z,24.50
2023-06-22T07:15:12.562Z,24.56
2023-06-22T07:17:42.041Z,24.66
2023-06-22T07:20:15.459Z,24.74
2023-06-22T07:22:44.186Z,24.82
2023-06-22T07:25:10.874Z,24.89
2023-06-22T07:27:44.847Z,24.98
2023-06-22T07:30:11.982Z,25.04
2023-06-22T07:32:38.711Z,25.10
2023-06-22T07:35:06.026Z,25.20
2023-06-22T07:37:34.360Z,25.28
2023-06-22T07:40:01.180Z,25.37
2023-06-22T07:42:28.550Z,25.40
2023-06-22T07:44:56.012Z,25.47
2023-06-22T07:47:26.504Z,25.53
2023-06-22T07:49:55.957Z,25.59
2023-06-22T07:52:22.847Z,25.72
2023-06-22T07:54:49.577Z,25.86
2023-06-22T07:57:16.192Z,25.98
2023-06-22T07:59:43.085Z,26.08
2023-06-22T08:02:10.762Z,26.19
2023-06-22T08:04:37.706Z,26.25
2023-06-22T08:07:05.147Z,26.31
2023-06-22T08:09:34.070Z,26.35
2023-06-22T08:12:00.756Z,26.43
2023-06-22T08:14:28.260Z,26.57
2023-06-22T08:16:54.927Z,26.67
2023-06-22T08:19:21.565Z,26.79
2023-06-22T08:21:48.197Z,26.86
2023-06-22T08:24:14.870Z,26.90
2023-06-22T08:26:41.474Z,27.02
2023-06-22T08:29:08.284Z,27.11
2023-06-22T08:31:35.677Z,27.18
2023-06-22T08:34:02.636Z,27.26
2023-06-22T08:36:33.907Z,27.34
2023-06-22T08:39:02.593Z,27.44
2023-06-22T08:41:29.950Z,27.57
2023-06-22T08:43:56.864Z,27.65
2023-06-22T08:46:25.771Z,27.69
2023-06-22T08:48:52.400Z,27.72
2023-06-22T08:51:18.978Z,27.77
2023-06-22T08:53:46.296Z,27.84
2023-06-22T08:56:13.026Z,27.99
2023-06-22T08:58:39.631Z,28.04
2023-06-22T09:01:06.468Z,28.11
2023-06-22T09:03:34.249Z,28.20
2023-06-22T09:06:01.025Z,28.26
2023-06-22T09:08:27.660Z,28.34
2023-06-22T09:10:54.359Z,28.36
2023-06-22T09:13:21.072Z,28.45
2023-06-22T09:15:47.764Z,28.56
2023-06-22T09:18:15.051Z,28.70
2023-06-22T09:20:41.845Z,28.85
2023-06-22T09:23:08.536Z,28.97
2023-06-22T09:25:35.160Z,29.05
2023-06-22T09:28:01.773Z,29.12
2023-06-22T09:30:30.977Z,29.18
2023-06-22T09:32:57.808Z,29.32
2023-06-22T09:35:24.481Z,29.35
2023-06-22T09:37:51.124Z,29.41
2023-06-22T09:40:18.318Z,29.47
2023-06-22T09:42:45.053Z,29.53
2023-06-22T09:45:11.791Z,29.59
2023-06-22T09:47:38.759Z,29.69
2023-06-22T09:50:06.770Z,29.83
2023-06-22T09:52:47.230Z,30.00
2023-06-22T09:55:17.425Z,30.14
2023-06-22T09:57:44.270Z,30.24
2023-06-22T10:00:14.346Z,30.32
2023-06-22T10:02:42.796Z,30.25
2023-06-22T10:05:09.803Z,30.25
2023-06-22T10:07:41.120Z,30.29
2023-06-22T10:10:08.440Z,30.36
2023-06-22T10:12:35.154Z,30.44
2023-06-22T10:15:01.865Z,30.51
2023-06-22T10:17:28.904Z,30.55
2023-06-22T10:19:55.640Z,30.70
2023-06-22T10:22:22.271Z,30.79
2023-06-22T10:24:48.840Z,30.93
2023-06-22T10:27:15.504Z,31.07
2023-06-22T10:29:42.740Z,31.12
2023-06-22T10:32:09.742Z,31.11
2023-06-22T10:34:36.369Z,31.18
2023-06-22T10:37:03.014Z,31.31
2023-06-22T10:39:29.637Z,31.43
2023-06-22T10:41:57.272Z,31.48
2023-06-22T10:44:23.915Z,31.53
2023-06-22T10:46:50.614Z,31.59
2023-06-22T10:49:17.240Z,31.69
2023-06-22T10:51:43.827Z,31.75
2023-06-22T10:54:10.482Z,31.81
2023-06-22T10:56:37.096Z,31.87
2023-06-22T10:59:03.705Z,31.88
2023-06-22T11:01:35.768Z,31.91
2023-06-22T11:04:03.800Z,31.95
2023-06-22T11:06:30.745Z,32.03
2023-06-22T11:09:04.942Z,32.09
2023-06-22T11:11:39.137Z,32.18
2023-06-22T11:14:06.008Z,32.26
2023-06-22T11:16:32.635Z,32.45
2023-06-22T11:18:59.200Z,32.61
2023-06-22T11:21:26.105Z,32.79
2023-06-22T11:23:52.715Z,32.90
2023-06-22T11:26:19.373Z,33.03
2023-06-22T11:28:45.983Z,33.19
2023-06-22T11:31:25.394Z,33.32
2023-06-22T11:33:53.069Z,33.44
2023-06-22T11:36:20.490Z,33.50
2023-06-22T11:38:47.160Z,33.44
2023-06-22T11:41:13.854Z,33.45
2023-06-22T11:43:40.492Z,33.50
2023-06-22T11:46:07.385Z,33.53
2023-06-22T11:48:33.994Z,33.54
2023-06-22T11:51:00.726Z,33.62
2023-06-22T11:53:28.336Z,33.67
2023-06-22T11:55:56.478Z,33.71
2023-06-22T11:58:23.712Z,33.70
2023-06-22T12:00:52.416Z,33.70
2023-06-22T12:03:20.401Z,33.73
2023-06-22T12:05:47.437Z,33.86
2023-06-22T12:08:15.112Z,34.04
2023-06-22T12:10:42.001Z,34.19
2023-06-22T12:13:08.766Z,34.36
2023-06-22T12:15:35.490Z,34.31
2023-06-22T12:18:02.693Z,34.25
2023-06-22T12:20:29.829Z,34.29
2023-06-22T12:22:59.564Z,34.37
2023-06-22T12:25:26.472Z,34.43
2023-06-22T12:27:53.437Z,34.49
2023-06-22T12:30:20.093Z,34.58
2023-06-22T12:32:46.999Z,34.70
2023-06-22T12:35:15.202Z,34.87
2023-06-22T12:37:43.530Z,34.95
2023-06-22T12:40:11.196Z,34.96
2023-06-22T12:42:38.036Z,35.05
2023-06-22T12:45:06.931Z,35.18
2023-06-22T12:47:34.993Z,35.35
2023-06-22T12:50:01.697Z,35.51
2023-06-22T12:52:28.323Z,35.67
2023-06-22T12:54:56.164Z,35.82
2023-06-22T12:57:23.550Z,35.94
2023-06-22T12:59:50.443Z,36.09
2023-06-22T13:02:17.168Z,36.22
2023-06-22T13:04:44.262Z,36.34
2023-06-22T13:09:40.757Z,36.51
2023-06-22T13:12:07.810Z,36.58
2023-06-22T13:14:34.431Z,36.63
2023-06-22T13:17:01.056Z,36.72
2023-06-22T13:19:29.974Z,36.81
2023-06-22T13:21:56.684Z,36.84
2023-06-22T13:24:23.289Z,36.77
2023-06-22T13:26:49.996Z,36.79
2023-06-22T13:29:16.559Z,36.69
2023-06-22T13:31:43.306Z,36.62
2023-06-22T13:34:10.023Z,36.52
2023-06-22T13:36:36.622Z,36.50
2023-06-22T13:39:03.354Z,36.58
2023-06-22T13:41:30.015Z,36.64
2023-06-22T13:43:56.642Z,36.73
2023-06-22T13:46:23.258Z,36.80
2023-06-22T13:48:49.901Z,36.77
2023-06-22T13:51:16.496Z,36.82
2023-06-22T13:53:43.151Z,36.86
2023-06-22T13:56:09.750Z,36.96
2023-06-22T13:58:36.493Z,37.03
2023-06-22T14:01:03.145Z,37.04
2023-06-22T14:03:29.728Z,37.11
2023-06-22T14:05:57.684Z,36.94
2023-06-22T14:08:41.177Z,36.83
2023-06-22T14:11:08.520Z,36.62
2023-06-22T14:13:36.707Z,36.37
2023-06-22T14:16:04.123Z,36.45
2023-06-22T14:18:30.772Z,36.60
2023-06-22T14:20:57.399Z,36.76
2023-06-22T14:23:24.031Z,36.92
2023-06-22T14:25:50.690Z,37.05
2023-06-22T14:28:17.768Z,37.12
2023-06-22T14:30:44.583Z,37.13
2023-06-22T14:33:11.542Z,37.19
2023-06-22T14:35:38.175Z,37.27
2023-06-22T14:38:04.781Z,37.33
2023-06-22T14:40:36.316Z,37.39
2023-06-22T14:43:10.984Z,37.44
2023-06-22T14:45:37.609Z,37.49
2023-06-22T14:48:04.624Z,37.43
2023-06-22T14:50:31.800Z,37.19
2023-06-22T14:52:58.589Z,36.85
2023-06-22T14:55:25.205Z,36.61
2023-06-22T14:57:51.871Z,36.53
2023-06-22T15:00:19.446Z,36.39
2023-06-22T15:02:46.205Z,36.25
2023-06-22T15:05:13.623Z,36.36
2023-06-22T15:07:40.693Z,36.42
2023-06-22T15:10:07.989Z,36.38
2023-06-22T15:12:34.581Z,36.32
2023-06-22T15:15:01.228Z,36.20
2023-06-22T15:17:31.711Z,36.19
2023-06-22T15:19:59.342Z,36.11
2023-06-22T15:22:25.973Z,36.10
2023-06-22T15:24:55.411Z,36.12
2023-06-22T15:27:22.021Z,36.19
2023-06-22T15:29:48.676Z,36.19
2023-06-22T15:32:16.100Z,36.27
2023-06-22T15:34:42.792Z,36.31
2023-06-22T15:37:10.095Z,36.32
2023-06-22T15:39:36.725Z,36.32
2023-06-22T15:42:03.442Z,36.27
2023-06-22T15:44:30.198Z,36.24
2023-06-22T15:46:56.803Z,36.04
2023-06-22T15:49:23.504Z,35.68
2023-06-22T15:51:50.164Z,35.55
2023-06-22T15:54:17.422Z,35.53
2023-06-22T15:56:44.152Z,35.57
2023-06-22T15:59:10.795Z,35.61
2023-06-22T16:01:37.556Z,35.59
2023-06-22T16:04:04.519Z,35.48
2023-06-22T16:06:31.172Z,35.41
2023-06-22T16:08:57.898Z,35.38
2023-06-22T16:11:24.532Z,35.31
2023-06-22T16:13:51.175Z,35.34
2023-06-22T16:16:17.947Z,35.37
2023-06-22T16:18:44.647Z,35.33
2023-06-22T16:21:11.341Z,35.33
2023-06-22T16:23:37.974Z,35.24
2023-06-22T16:26:04.702Z,35.20
2023-06-22T16:28:31.344Z,35.08
2023-06-22T16:30:57.921Z,35.10
2023-06-22T16:33:26.166Z,35.05
2023-06-22T16:35:52.937Z,35.03
2023-06-22T16:38:19.512Z,34.99
2023-06-22T16:40:46.254Z,34.90
2023-06-22T16:43:12.918Z,34.86
2023-06-22T16:45:39.580Z,34.77
2023-06-22T16:48:06.474Z,34.72
2023-06-22T16:50:33.273Z,34.58
2023-06-22T16:53:00.175Z,34.49
2023-06-22T16:55:31.176Z,34.33
2023-06-22T16:57:59.329Z,34.20
2023-06-22T17:00:26.121Z,34.11
2023-06-22T17:02:54.903Z,34.14
2023-06-22T17:05:21.649Z,34.14
2023-06-22T17:07:58.149Z,34.11
2023-06-22T17:10:25.272Z,34.07
2023-06-22T17:12:54.222Z,33.96
2023-06-22T17:15:22.876Z,33.86
2023-06-22T17:17:50.015Z,33.75
2023-06-22T17:20:16.770Z,33.44
2023-06-22T17:22:46.079Z,33.24
2023-06-22T17:25:14.192Z,33.15
2023-06-22T17:27:40.975Z,33.12
2023-06-22T17:30:11.602Z,33.02
2023-06-22T17:32:38.263Z,32.93
2023-06-22T17:35:05.645Z,32.83
2023-06-22T17:37:49.078Z,32.78
2023-06-22T17:40:17.553Z,32.66
2023-06-22T17:42:44.405Z,32.43
2023-06-22T17:45:21.065Z,32.40
2023-06-22T17:47:52.986Z,32.28
2023-06-22T17:50:23.323Z,32.15
2023-06-22T17:52:54.504Z,32.10
2023-06-22T17:55:25.031Z,32.10
2023-06-22T17:57:59.268Z,32.10
2023-06-22T18:00:27.356Z,31.92
2023-06-22T18:02:55.114Z,31.65
2023-06-22T18:05:34.948Z,31.51
2023-06-22T18:08:03.814Z,31.42
2023-06-22T18:10:34.090Z,31.23
2023-06-22T18:13:01.729Z,31.11
2023-06-22T18:15:29.430Z,31.12
2023-06-22T18:17:56.520Z,31.07
2023-06-22T18:20:23.226Z,30.86
2023-06-22T18:22:50.410Z,30.66
2023-06-22T18:25:17.841Z,30.51
2023-06-22T18:27:45.035Z,30.46
2023-06-22T18:30:12.026Z,30.46
2023-06-22T18:32:40.443Z,30.34
2023-06-22T18:35:08.714Z,30.16
2023-06-22T18:37:37.543Z,30.05
2023-06-22T18:40:08.646Z,29.93
2023-06-22T18:42:40.869Z,29.70
2023-06-22T18:45:26.143Z,29.52
2023-06-22T18:48:02.304Z,29.37
2023-06-22T18:50:43.685Z,29.34
2023-06-22T18:53:26.844Z,29.25
2023-06-22T18:56:12.230Z,29.04
2023-06-22T18:58:38.844Z,28.92
2023-06-22T19:01:19.482Z,28.84
2023-06-22T19:03:50.576Z,28.81
2023-06-22T19:06:55.464Z,28.61
2023-06-22T19:09:22.218Z,28.49
2023-06-22T19:11:49.912Z,28.48
2023-06-22T19:14:22.367Z,28.36
2023-06-22T19:16:57.849Z,28.30
2023-06-22T19:19:24.896Z,28.23
2023-06-22T19:22:01.639Z,28.05
2023-06-22T19:24:32.184Z,27.93
2023-06-22T19:26:59.225Z,27.84
2023-06-22T19:29:28.173Z,27.79
2023-06-22T19:31:55.615Z,27.75
2023-06-22T19:34:23.981Z,27.68
2023-06-22T19:36:50.689Z,27.64
2023-06-22T19:39:17.802Z,27.54
2023-06-22T19:41:47.268Z,27.39
2023-06-22T19:44:14.402Z,27.33
2023-06-22T19:46:43.382Z,27.31
2023-06-22T19:49:10.072Z,27.12
2023-06-22T19:51:37.204Z,27.05
2023-06-22T19:54:12.859Z,27.00
2023-06-22T19:56:40.004Z,26.93
2023-06-22T19:59:15.434Z,26.85
2023-06-22T20:01:42.992Z,26.77
2023-06-22T20:04:11.088Z,26.66
2023-06-22T20:06:38.720Z,26.55
2023-06-22T20:09:07.458Z,26.48
2023-06-22T20:11:36.268Z,26.42
2023-06-22T20:14:03.594Z,26.34
2023-06-22T20:16:31.806Z,26.31
2023-06-22T20:19:09.108Z,26.29
2023-06-22T20:21:37.342Z,26.24
2023-06-22T20:24:13.312Z,26.18
2023-06-22T20:26:48.125Z,26.09
2023-06-22T20:29:31.175Z,26.03
2023-06-22T20:32:10.012Z,25.93
2023-06-22T20:34:49.018Z,25.90
2023-06-22T20:37:19.863Z,25.84
2023-06-22T20:39:49.520Z,25.77
2023-06-22T20:42:18.468Z,25.70
2023-06-22T20:44:50.988Z,25.64
2023-06-22T20:47:20.705Z,25.59
2023-06-22T20:49:47.422Z,25.51
2023-06-22T20:52:14.042Z,25.51
2023-06-22T20:57:21.843Z,25.38
2023-06-22T20:59:48.518Z,25.33
2023-06-22T21:02:17.093Z,25.31
2023-06-22T21:04:43.849Z,25.24
2023-06-22T21:07:10.557Z,25.23
2023-06-22T21:09:50.147Z,25.25
2023-06-22T21:12:18.227Z,25.22
2023-06-22T21:14:45.385Z,25.19
2023-06-22T21:17:12.375Z,25.14
2023-06-22T21:19:38.981Z,25.11
2023-06-22T21:22:05.868Z,25.13
2023-06-22T21:24:32.844Z,25.15
2023-06-22T21:26:59.582Z,25.12
2023-06-22T21:29:26.244Z,25.14
2023-06-22T21:31:52.880Z,25.17
2023-06-22T21:34:19.641Z,25.18
2023-06-22T21:36:46.245Z,25.19
2023-06-22T21:39:12.876Z,25.15
2023-06-22T21:41:39.493Z,25.16
2023-06-22T21:44:06.115Z,25.17
2023-06-22T21:46:32.889Z,25.14
2023-06-22T21:48:59.597Z,25.10
2023-06-22T21:51:26.324Z,25.12
2023-06-22T21:53:52.933Z,25.14
2023-06-22T21:56:19.599Z,25.15
2023-06-22T21:58:46.390Z,25.14
2023-06-22T22:01:13.033Z,25.15
2023-06-22T22:03:39.688Z,25.14
2023-06-22T22:06:06.996Z,25.17
2023-06-22T22:08:33.604Z,25.16
2023-06-22T22:11:00.465Z,25.17
2023-06-22T22:13:27.590Z,25.17
2023-06-22T22:15:54.291Z,25.16
2023-06-22T22:18:20.942Z,25.15
2023-06-22T22:20:47.750Z,25.14
2023-06-22T22:23:14.424Z,25.13
2023-06-22T22:25:41.092Z,25.09
2023-06-22T22:28:07.706Z,25.06
2023-06-22T22:30:34.479Z,25.04
2023-06-22T22:33:01.252Z,25.01
2023-06-22T22:35:27.953Z,24.97
2023-06-22T22:38:15.617Z,24.94
2023-06-22T22:40:42.295Z,24.89
2023-06-22T22:43:08.869Z,24.84
2023-06-22T22:45:35.509Z,24.82
2023-06-22T22:48:02.568Z,24.80
2023-06-22T22:50:29.331Z,24.76
2023-06-22T22:52:56.058Z,24.64
2023-06-22T22:55:23.343Z,24.57
2023-06-22T22:57:50.462Z,24.56
2023-06-22T23:00:17.354Z,24.50
2023-06-22T23:02:44.582Z,24.49
2023-06-22T23:05:12.845Z,24.46
2023-06-22T23:07:40.234Z,24.46
2023-06-22T23:10:07.502Z,24.43
2023-06-22T23:12:34.229Z,24.41
2023-06-22T23:15:01.898Z,24.40
2023-06-22T23:17:28.567Z,24.40
2023-06-22T23:19:55.232Z,24.39
2023-06-22T23:22:22.801Z,24.36
2023-06-22T23:24:49.463Z,24.33
2023-06-22T23:27:16.519Z,24.33
2023-06-22T23:29:45.170Z,24.33
2023-06-22T23:32:12.157Z,24.30
2023-06-22T23:34:38.840Z,24.29
2023-06-22T23:37:05.752Z,24.25
2023-06-22T23:39:32.407Z,24.23
2023-06-22T23:41:59.089Z,24.21
2023-06-22T23:44:26.065Z,24.19
2023-06-22T23:46:52.779Z,24.19
2023-06-22T23:49:19.470Z,24.19
2023-06-22T23:51:46.262Z,24.18
2023-06-22T23:54:12.862Z,24.16
2023-06-22T23:56:39.483Z,24.15
2023-06-22T23:59:06.219Z,24.16
